Time;durP1;ratioP1;P1;durP2;ratioP2;P2;SDS_P1;SDS_P2;PMS_P1;PMS_P2;Temp;Humidity;BMP_temperature;BMP_pressure;BME280_temperature;BME280_humidity;BME280_pressure;Samples;Min_cycle;Max_cycle;Signal;HPM_P1;HPM_P2
2023/09/05 00:01:36;;;;;;;11.30;5.70;;;;;;;;;;5033374;28;20439;-65
2023/09/05 00:04:01;;;;;;;13.03;6.80;;;;;;;;;;5037840;28;20820;-65
2023/09/05 00:06:27;;;;;;;14.63;6.77;;;;;;;;;;5052894;28;20010;-65
2023/09/05 00:08:52;;;;;;;13.05;6.50;;;;;;;;;;5052917;28;20273;-65
2023/09/05 00:11:17;;;;;;;15.43;6.23;;;;;;;;;;5053184;28;20035;-65
2023/09/05 00:13:42;;;;;;;10.53;6.53;;;;;;;;;;5053062;28;20017;-65
2023/09/05 00:16:08;;;;;;;12.80;6.40;;;;;;;;;;5053182;28;20438;-65
2023/09/05 00:18:33;;;;;;;13.63;7.23;;;;;;;;;;5053033;28;20273;-65
2023/09/05 00:20:58;;;;;;;12.57;6.73;;;;;;;;;;5052686;28;20266;-65
2023/09/05 00:23:24;;;;;;;16.60;7.17;;;;;;;;;;5052952;28;20025;-65
2023/09/05 00:25:49;;;;;;;12.13;6.68;;;;;;;;;;5052935;28;20055;-65
2023/09/05 00:28:14;;;;;;;12.10;6.30;;;;;;;;;;5053238;28;20032;-65
2023/09/05 00:30:39;;;;;;;9.53;6.53;;;;;;;;;;5052752;28;20633;-65
2023/09/05 00:33:05;;;;;;;10.30;6.78;;;;;;;;;;5053179;28;20028;-65
2023/09/05 00:35:30;;;;;;;22.27;6.57;;;;;;;;;;5052904;28;20061;-65
2023/09/05 00:37:55;;;;;;;10.97;6.83;;;;;;;;;;5049820;28;20472;-65
2023/09/05 00:40:20;;;;;;;17.77;7.33;;;;;;;;;;5033018;28;20025;-70
2023/09/05 00:42:45;;;;;;;13.33;6.90;;;;;;;;;;5032884;28;20329;-70
2023/09/05 00:45:11;;;;;;;12.40;6.90;;;;;;;;;;5032920;28;20014;-70
2023/09/05 00:47:36;;;;;;;14.97;7.80;;;;;;;;;;5032895;28;20298;-69
2023/09/05 00:50:07;;;;;;;13.27;6.90;;;;;;;;;;5032865;28;20246;-70
2023/09/05 00:52:32;;;;;;;18.02;7.68;;;;;;;;;;5033108;28;20460;-70
2023/09/05 00:54:58;;;;;;;13.25;7.63;;;;;;;;;;5044355;28;20090;-70
2023/09/05 00:57:24;;;;;;;14.90;7.63;;;;;;;;;;5052685;28;20078;-70
2023/09/05 00:59:49;;;;;;;13.55;7.72;;;;;;;;;;5052698;28;20025;-70
2023/09/05 01:02:15;;;;;;;10.95;7.50;;;;;;;;;;5052890;28;20488;-70
2023/09/05 01:04:42;;;;;;;14.00;7.33;;;;;;;;;;5052575;28;20147;-70
2023/09/05 01:07:08;;;;;;;12.38;7.28;;;;;;;;;;5052705;28;20257;-70
2023/09/05 01:09:44;;;;;;;11.83;6.70;;;;;;;;;;5052253;28;20020;-70
2023/09/05 01:12:09;;;;;;;15.65;8.13;;;;;;;;;;5052685;28;20017;-70
2023/09/05 01:14:34;;;;;;;14.10;7.43;;;;;;;;;;5027784;28;20497;-70
2023/09/05 01:17:05;;;;;;;11.53;7.00;;;;;;;;;;5032600;28;20029;-70
2023/09/05 01:19:31;;;;;;;16.38;8.15;;;;;;;;;;5034199;28;20031;-70
2023/09/05 01:21:59;;;;;;;16.45;7.88;;;;;;;;;;5036145;28;20079;-70
2023/09/05 01:24:24;;;;;;;12.27;7.25;;;;;;;;;;5036002;28;20467;-70
2023/09/05 01:26:51;;;;;;;20.73;7.63;;;;;;;;;;5036077;28;20048;-70
2023/09/05 01:29:18;;;;;;;12.70;6.78;;;;;;;;;;5036188;28;20021;-70
2023/09/05 01:31:43;;;;;;;17.52;7.72;;;;;;;;;;5035732;28;20095;-70
2023/09/05 01:34:08;;;;;;;11.73;7.45;;;;;;;;;;5035979;28;20030;-70
2023/09/05 01:36:34;;;;;;;13.70;7.22;;;;;;;;;;5036139;28;20388;-70
2023/09/05 01:38:59;;;;;;;14.00;7.65;;;;;;;;;;5035756;28;20025;-70
2023/09/05 01:41:24;;;;;;;14.77;8.10;;;;;;;;;;5036044;28;20113;-70
2023/09/05 01:43:49;;;;;;;16.90;7.13;;;;;;;;;;5035666;28;20439;-70
2023/09/05 01:46:15;;;;;;;12.47;7.80;;;;;;;;;;5035716;28;20297;-70
2023/09/05 01:48:40;;;;;;;14.55;7.70;;;;;;;;;;5041414;28;20039;-65
2023/09/05 01:51:05;;;;;;;19.37;7.20;;;;;;;;;;5055633;28;20023;-65
2023/09/05 01:53:30;;;;;;;17.57;8.53;;;;;;;;;;5053929;28;20025;-65
2023/09/05 01:55:57;;;;;;;18.43;8.53;;;;;;;;;;5055195;28;20473;-65
2023/09/05 01:58:23;;;;;;;14.05;8.02;;;;;;;;;;5055623;28;20051;-65
2023/09/05 02:00:48;;;;;;;17.50;7.80;;;;;;;;;;5055025;28;20098;-65
2023/09/05 02:03:13;;;;;;;13.93;7.23;;;;;;;;;;5055186;28;20099;-65
2023/09/05 02:05:38;;;;;;;14.10;7.27;;;;;;;;;;5055483;28;20341;-65
2023/09/05 02:08:04;;;;;;;13.43;8.02;;;;;;;;;;5055173;28;20021;-65
2023/09/05 02:10:30;;;;;;;16.75;8.07;;;;;;;;;;5055075;28;20013;-65
2023/09/05 02:12:55;;;;;;;15.95;8.15;;;;;;;;;;5055356;28;20017;-65
2023/09/05 02:15:20;;;;;;;13.35;7.72;;;;;;;;;;5055043;28;20115;-65
2023/09/05 02:17:46;;;;;;;20.07;8.13;;;;;;;;;;5055060;28;20092;-65
2023/09/05 02:20:11;;;;;;;12.40;7.33;;;;;;;;;;5054988;28;20058;-65
2023/09/05 02:22:36;;;;;;;13.47;7.23;;;;;;;;;;5050415;28;20017;-65
2023/09/05 02:25:01;;;;;;;16.17;7.30;;;;;;;;;;5034864;28;20091;-65
2023/09/05 02:27:27;;;;;;;14.50;7.77;;;;;;;;;;5035153;28;20022;-65
2023/09/05 02:29:56;;;;;;;13.85;7.68;;;;;;;;;;5034464;28;20282;-65
2023/09/05 02:32:21;;;;;;;12.60;7.72;;;;;;;;;;5035059;28;20461;-65
2023/09/05 02:34:50;;;;;;;17.30;7.95;;;;;;;;;;5034790;28;20021;-65
2023/09/05 02:37:15;;;;;;;14.27;7.03;;;;;;;;;;5034778;28;20021;-65
2023/09/05 02:39:41;;;;;;;18.23;7.97;;;;;;;;;;5034689;28;20013;-65
2023/09/05 02:42:06;;;;;;;14.50;7.77;;;;;;;;;;5034564;28;20267;-65
2023/09/05 02:44:31;;;;;;;13.52;7.32;;;;;;;;;;5034426;28;20036;-65
2023/09/05 02:46:57;;;;;;;13.87;7.50;;;;;;;;;;5034531;28;20033;-65
2023/09/05 02:49:22;;;;;;;19.45;7.68;;;;;;;;;;5034656;28;20112;-65
2023/09/05 02:51:47;;;;;;;14.90;7.73;;;;;;;;;;5034436;28;20076;-64
2023/09/05 02:54:12;;;;;;;13.30;7.57;;;;;;;;;;5034470;28;20025;-65
2023/09/05 02:56:37;;;;;;;15.27;7.23;;;;;;;;;;5037153;28;20028;-65
2023/09/05 02:59:03;;;;;;;13.30;7.63;;;;;;;;;;5054301;28;20492;-65
2023/09/05 03:01:28;;;;;;;12.17;7.07;;;;;;;;;;5054153;28;20032;-65
2023/09/05 03:03:53;;;;;;;15.48;7.05;;;;;;;;;;5053659;28;20116;-65
2023/09/05 03:06:18;;;;;;;20.08;7.72;;;;;;;;;;5054315;28;20040;-65
2023/09/05 03:08:45;;;;;;;15.57;8.10;;;;;;;;;;5053998;28;20494;-65
2023/09/05 03:11:10;;;;;;;14.77;7.72;;;;;;;;;;5054095;28;20009;-65
2023/09/05 03:13:35;;;;;;;13.38;8.23;;;;;;;;;;5053953;28;20033;-65
2023/09/05 03:16:01;;;;;;;16.03;7.60;;;;;;;;;;5053935;28;20025;-65
2023/09/05 03:18:26;;;;;;;16.77;8.77;;;;;;;;;;5053848;28;20604;-65
2023/09/05 03:20:51;;;;;;;14.70;8.50;;;;;;;;;;5053837;28;20051;-65
2023/09/05 03:23:16;;;;;;;15.50;8.63;;;;;;;;;;5053679;28;20025;-65
2023/09/05 03:25:42;;;;;;;27.13;8.13;;;;;;;;;;5053689;28;20092;-65
2023/09/05 03:28:10;;;;;;;18.45;7.95;;;;;;;;;;5053790;28;20380;-65
2023/09/05 03:30:35;;;;;;;16.55;7.97;;;;;;;;;;5051630;28;20045;-64
2023/09/05 03:33:00;;;;;;;13.43;8.05;;;;;;;;;;5033754;28;20017;-65
2023/09/05 03:35:26;;;;;;;13.07;7.73;;;;;;;;;;5033928;28;20035;-65
2023/09/05 03:37:51;;;;;;;15.73;7.53;;;;;;;;;;5035183;28;20253;-65
2023/09/05 03:40:16;;;;;;;17.83;7.87;;;;;;;;;;5053546;28;20037;-65
2023/09/05 03:42:43;;;;;;;15.57;7.67;;;;;;;;;;5052803;28;20117;-65
2023/09/05 03:45:08;;;;;;;17.02;8.50;;;;;;;;;;5053301;28;20262;-65
2023/09/05 03:47:34;;;;;;;15.20;8.52;;;;;;;;;;5053067;28;20017;-65
2023/09/05 03:49:59;;;;;;;16.23;8.17;;;;;;;;;;5053372;28;20395;-65
2023/09/05 03:52:24;;;;;;;15.13;7.78;;;;;;;;;;5053563;28;20013;-65
2023/09/05 03:54:49;;;;;;;21.13;8.73;;;;;;;;;;5053285;28;20021;-65
2023/09/05 03:57:16;;;;;;;18.77;7.93;;;;;;;;;;5053264;28;20412;-65
2023/09/05 03:59:41;;;;;;;16.58;8.68;;;;;;;;;;5053491;28;20246;-65
2023/09/05 04:02:06;;;;;;;19.50;7.87;;;;;;;;;;5053264;28;20530;-65
2023/09/05 04:04:31;;;;;;;17.17;8.27;;;;;;;;;;5052794;28;20016;-65
2023/09/05 04:06:56;;;;;;;13.83;7.13;;;;;;;;;;5033479;28;20037;-65
2023/09/05 04:09:22;;;;;;;15.07;6.33;;;;;;;;;;5033357;28;20018;-70
2023/09/05 04:11:47;;;;;;;15.73;7.70;;;;;;;;;;5033291;28;20476;-69
2023/09/05 04:14:12;;;;;;;12.60;6.93;;;;;;;;;;5033456;28;20099;-70
2023/09/05 04:16:37;;;;;;;16.50;6.88;;;;;;;;;;5033104;28;20032;-70
2023/09/05 04:19:03;;;;;;;14.40;6.80;;;;;;;;;;5033139;28;20080;-70
2023/09/05 04:21:28;;;;;;;13.90;6.68;;;;;;;;;;5033358;28;20029;-70
2023/09/05 04:23:53;;;;;;;12.90;6.60;;;;;;;;;;5033054;28;20049;-69
2023/09/05 04:26:19;;;;;;;13.83;7.00;;;;;;;;;;5033096;28;20449;-70
2023/09/05 04:28:44;;;;;;;10.77;5.30;;;;;;;;;;5033146;28;20028;-69
2023/09/05 04:31:09;;;;;;;15.65;6.60;;;;;;;;;;5032931;28;20501;-70
2023/09/05 04:33:37;;;;;;;12.90;6.07;;;;;;;;;;5032961;28;20017;-70
2023/09/05 04:36:09;;;;;;;10.70;5.55;;;;;;;;;;5032984;28;20246;-70
2023/09/05 04:38:34;;;;;;;20.15;6.60;;;;;;;;;;5033192;28;20113;-70
2023/09/05 04:41:00;;;;;;;14.02;6.60;;;;;;;;;;5051705;28;20108;-70
2023/09/05 04:43:26;;;;;;;13.85;5.93;;;;;;;;;;5053044;28;20036;-70
2023/09/05 04:45:53;;;;;;;14.15;6.22;;;;;;;;;;5053053;28;20021;-69
2023/09/05 04:48:18;;;;;;;14.85;6.45;;;;;;;;;;5034578;28;20427;-69
2023/09/05 04:50:43;;;;;;;13.90;6.63;;;;;;;;;;5052792;28;20021;-69
2023/09/05 04:53:08;;;;;;;9.97;5.27;;;;;;;;;;5037307;28;20225;-70
2023/09/05 04:55:33;;;;;;;14.23;6.60;;;;;;;;;;5036633;28;20298;-70
2023/09/05 04:57:59;;;;;;;12.93;5.90;;;;;;;;;;5036592;28;20025;-70
2023/09/05 05:00:25;;;;;;;13.23;5.67;;;;;;;;;;5036797;28;20334;-70
2023/09/05 05:02:51;;;;;;;12.48;6.57;;;;;;;;;;5036760;28;20044;-69
2023/09/05 05:05:16;;;;;;;12.52;6.13;;;;;;;;;;5036698;28;20044;-69
2023/09/05 05:07:41;;;;;;;14.05;7.50;;;;;;;;;;5036409;28;20431;-70
2023/09/05 05:10:07;;;;;;;12.15;6.00;;;;;;;;;;5036658;28;20022;-69
2023/09/05 05:12:32;;;;;;;13.65;6.03;;;;;;;;;;5036316;28;20020;-69
2023/09/05 05:14:57;;;;;;;11.60;5.60;;;;;;;;;;5053625;28;20020;-70
2023/09/05 05:17:23;;;;;;;15.60;5.97;;;;;;;;;;5056205;28;20284;-70
2023/09/05 05:19:48;;;;;;;11.30;5.70;;;;;;;;;;5055927;28;20029;-65
2023/09/05 05:22:13;;;;;;;17.03;5.67;;;;;;;;;;5056291;28;20319;-65
2023/09/05 05:24:38;;;;;;;10.30;5.53;;;;;;;;;;5055975;28;20265;-65
2023/09/05 05:27:04;;;;;;;12.33;5.50;;;;;;;;;;5056238;28;20021;-65
2023/09/05 05:29:32;;;;;;;14.23;5.72;;;;;;;;;;5055700;28;20258;-65
2023/09/05 05:31:57;;;;;;;12.68;5.75;;;;;;;;;;5055833;28;20099;-65
2023/09/05 05:34:23;;;;;;;9.93;5.50;;;;;;;;;;5055872;28;20102;-65
2023/09/05 05:36:48;;;;;;;12.43;5.97;;;;;;;;;;5055781;28;20021;-65
2023/09/05 05:39:13;;;;;;;10.80;5.67;;;;;;;;;;5055836;28;20480;-65
2023/09/05 05:41:38;;;;;;;17.03;5.87;;;;;;;;;;5055964;28;20039;-65
2023/09/05 05:44:04;;;;;;;11.73;5.90;;;;;;;;;;5055580;28;20267;-65
2023/09/05 05:46:32;;;;;;;13.63;6.18;;;;;;;;;;5055676;28;20029;-65
2023/09/05 05:48:58;;;;;;;17.80;5.82;;;;;;;;;;5038998;28;20025;-65
2023/09/05 05:51:23;;;;;;;11.45;5.55;;;;;;;;;;5055491;28;20111;-65
2023/09/05 05:53:49;;;;;;;15.73;5.63;;;;;;;;;;5055488;28;20064;-65
2023/09/05 05:56:15;;;;;;;14.10;6.40;;;;;;;;;;5055566;28;20513;-65
2023/09/05 05:58:40;;;;;;;12.95;5.10;;;;;;;;;;5055626;28;20119;-65
2023/09/05 06:01:07;;;;;;;15.50;5.80;;;;;;;;;;5055635;28;20102;-65
2023/09/05 06:03:35;;;;;;;9.93;5.35;;;;;;;;;;5055477;28;20047;-65
2023/09/05 06:06:01;;;;;;;16.48;5.15;;;;;;;;;;5054826;28;20048;-65
2023/09/05 06:08:26;;;;;;;14.65;6.25;;;;;;;;;;5054772;28;20043;-65
2023/09/05 06:10:51;;;;;;;21.73;6.40;;;;;;;;;;5055184;28;20017;-65
2023/09/05 06:13:17;;;;;;;14.90;5.63;;;;;;;;;;5055341;28;20265;-65
2023/09/05 06:15:42;;;;;;;25.93;6.33;;;;;;;;;;5055129;28;20087;-65
2023/09/05 06:18:08;;;;;;;16.60;6.15;;;;;;;;;;5054720;28;20468;-65
2023/09/05 06:20:34;;;;;;;12.00;5.95;;;;;;;;;;5055172;28;20108;-65
2023/09/05 06:23:00;;;;;;;18.23;5.55;;;;;;;;;;5039496;28;20124;-65
2023/09/05 06:25:25;;;;;;;19.20;6.18;;;;;;;;;;5035017;28;20023;-65
2023/09/05 06:27:50;;;;;;;14.73;5.32;;;;;;;;;;5034930;28;20385;-65
2023/09/05 06:30:16;;;;;;;14.97;5.33;;;;;;;;;;5034677;28;20049;-70
2023/09/05 06:32:42;;;;;;;21.83;6.05;;;;;;;;;;5034885;28;20262;-70
2023/09/05 06:35:07;;;;;;;9.88;4.45;;;;;;;;;;5034780;28;20022;-71
2023/09/05 06:37:33;;;;;;;8.40;4.80;;;;;;;;;;5034989;28;20032;-71
2023/09/05 06:39:59;;;;;;;10.32;5.07;;;;;;;;;;5034921;28;20025;-70
2023/09/05 06:42:24;;;;;;;8.00;4.20;;;;;;;;;;5034639;28;20040;-71
2023/09/05 06:44:49;;;;;;;8.73;4.50;;;;;;;;;;5034567;28;20029;-71
2023/09/05 06:47:15;;;;;;;12.50;4.57;;;;;;;;;;5034542;28;20013;-71
2023/09/05 06:49:40;;;;;;;11.30;4.30;;;;;;;;;;5034744;28;20044;-71
2023/09/05 06:52:05;;;;;;;8.35;4.20;;;;;;;;;;5034710;28;20017;-71
2023/09/05 06:54:31;;;;;;;20.05;5.00;;;;;;;;;;5034376;28;20017;-71
2023/09/05 06:56:56;;;;;;;10.15;4.53;;;;;;;;;;5033654;28;20065;-70
2023/09/05 06:59:21;;;;;;;7.90;3.70;;;;;;;;;;5025240;28;20022;-71
2023/09/05 07:01:47;;;;;;;14.17;5.10;;;;;;;;;;5033344;28;20025;-70
2023/09/05 07:04:13;;;;;;;8.70;4.07;;;;;;;;;;5033175;28;20282;-71
2023/09/05 07:06:39;;;;;;;14.80;3.75;;;;;;;;;;5033226;28;20078;-71
2023/09/05 07:09:05;;;;;;;7.70;3.40;;;;;;;;;;5033378;28;20025;-71
2023/09/05 07:11:31;;;;;;;6.88;3.45;;;;;;;;;;5032701;28;20071;-71
2023/09/05 07:13:56;;;;;;;6.30;3.23;;;;;;;;;;5033672;28;20033;-71
2023/09/05 07:16:21;;;;;;;9.27;3.10;;;;;;;;;;5032749;28;20353;-71
2023/09/05 07:18:46;;;;;;;6.20;3.17;;;;;;;;;;5032956;28;20086;-71
2023/09/05 07:21:12;;;;;;;11.07;3.87;;;;;;;;;;5033747;28;20266;-71
2023/09/05 07:23:37;;;;;;;7.93;3.30;;;;;;;;;;5033323;28;20285;-71
2023/09/05 07:26:03;;;;;;;5.67;3.13;;;;;;;;;;5033342;28;20031;-70
2023/09/05 07:28:28;;;;;;;6.65;3.55;;;;;;;;;;5032932;28;20018;-71
2023/09/05 07:30:53;;;;;;;6.27;3.10;;;;;;;;;;5032876;28;20041;-70
2023/09/05 07:33:18;;;;;;;6.30;3.53;;;;;;;;;;5033096;28;20013;-70
2023/09/05 07:35:44;;;;;;;8.47;3.27;;;;;;;;;;5033291;28;20535;-69
2023/09/05 07:38:09;;;;;;;5.85;2.90;;;;;;;;;;5033160;28;20017;-71
2023/09/05 07:40:34;;;;;;;7.70;3.50;;;;;;;;;;5033156;28;20175;-66
2023/09/05 07:43:00;;;;;;;4.57;2.88;;;;;;;;;;5032107;28;20259;-66
2023/09/05 07:45:25;;;;;;;7.97;3.13;;;;;;;;;;5032898;28;20025;-66
2023/09/05 07:47:51;;;;;;;7.15;3.17;;;;;;;;;;5032881;28;20025;-66
2023/09/05 07:50:17;;;;;;;6.22;2.72;;;;;;;;;;5033246;28;20029;-66
2023/09/05 07:52:42;;;;;;;5.63;2.97;;;;;;;;;;5032815;28;20155;-66
2023/09/05 07:55:07;;;;;;;6.07;3.00;;;;;;;;;;5033168;28;20282;-66
2023/09/05 07:57:32;;;;;;;8.07;3.35;;;;;;;;;;5032144;28;20278;-66
2023/09/05 07:59:58;;;;;;;7.35;3.03;;;;;;;;;;5033010;28;20026;-66
2023/09/05 08:02:23;;;;;;;6.37;2.90;;;;;;;;;;5033010;28;20472;-66
2023/09/05 08:04:49;;;;;;;4.13;2.47;;;;;;;;;;5032198;28;20061;-66
2023/09/05 08:07:14;;;;;;;4.47;2.60;;;;;;;;;;5032740;28;20734;-66
2023/09/05 08:09:39;;;;;;;5.70;2.97;;;;;;;;;;5032416;28;20026;-66
2023/09/05 08:12:05;;;;;;;5.37;2.87;;;;;;;;;;5032104;28;20108;-66
2023/09/05 08:14:30;;;;;;;6.55;2.92;;;;;;;;;;5032632;28;20275;-66
2023/09/05 08:16:56;;;;;;;4.43;2.50;;;;;;;;;;5032596;28;20022;-66
2023/09/05 08:19:21;;;;;;;9.18;2.67;;;;;;;;;;5043028;28;20262;-66
2023/09/05 08:21:46;;;;;;;5.43;3.10;;;;;;;;;;5052441;28;20028;-66
2023/09/05 08:24:11;;;;;;;5.00;2.63;;;;;;;;;;5052067;28;20380;-66
2023/09/05 08:26:37;;;;;;;8.30;3.03;;;;;;;;;;5052252;28;20021;-66
2023/09/05 08:29:03;;;;;;;5.00;2.53;;;;;;;;;;5055298;28;20261;-66
2023/09/05 08:31:29;;;;;;;7.65;2.80;;;;;;;;;;5056846;28;20049;-66
2023/09/05 08:33:54;;;;;;;4.22;2.47;;;;;;;;;;5056950;28;20499;-66
2023/09/05 08:36:19;;;;;;;6.37;2.60;;;;;;;;;;5056942;28;20017;-66
2023/09/05 08:38:45;;;;;;;4.37;2.40;;;;;;;;;;5056853;28;20021;-66
2023/09/05 08:41:10;;;;;;;3.83;2.33;;;;;;;;;;5056875;28;20025;-66
2023/09/05 08:43:35;;;;;;;7.90;2.80;;;;;;;;;;5056748;28;20024;-66
2023/09/05 08:46:01;;;;;;;5.17;2.60;;;;;;;;;;5056819;28;20254;-66
2023/09/05 08:48:27;;;;;;;9.55;2.95;;;;;;;;;;5056978;28;20028;-66
2023/09/05 08:50:54;;;;;;;4.97;3.05;;;;;;;;;;5056808;28;20092;-66
2023/09/05 08:53:22;;;;;;;4.22;2.53;;;;;;;;;;5056916;28;20423;-66
2023/09/05 08:55:48;;;;;;;4.57;2.33;;;;;;;;;;5056562;28;20482;-66
2023/09/05 08:58:15;;;;;;;4.30;2.45;;;;;;;;;;5056816;28;20017;-66
2023/09/05 09:00:40;;;;;;;4.38;2.22;;;;;;;;;;5056497;28;20369;-66
2023/09/05 09:03:06;;;;;;;4.13;2.60;;;;;;;;;;5056504;28;20067;-66
2023/09/05 09:05:32;;;;;;;4.20;2.55;;;;;;;;;;5056480;28;20032;-64
2023/09/05 09:07:57;;;;;;;6.57;2.80;;;;;;;;;;5056621;28;20456;-64
2023/09/05 09:10:23;;;;;;;6.90;2.40;;;;;;;;;;5056317;28;20066;-64
2023/09/05 09:13:12;;;;;;;5.13;2.20;;;;;;;;;;5056525;28;20246;-66
2023/09/05 09:15:38;;;;;;;8.70;2.65;;;;;;;;;;5056267;28;20520;-66
2023/09/05 09:18:09;;;;;;;5.30;2.58;;;;;;;;;;5056178;28;20056;-66
2023/09/05 09:20:41;;;;;;;3.72;2.35;;;;;;;;;;5056101;28;20017;-66
2023/09/05 09:23:06;;;;;;;5.80;2.60;;;;;;;;;;5056288;28;20507;-66
2023/09/05 09:25:33;;;;;;;6.03;2.20;;;;;;;;;;5056080;28;20017;-66
2023/09/05 09:27:58;;;;;;;2.28;1.80;;;;;;;;;;5056248;28;20017;-66
2023/09/05 09:30:24;;;;;;;4.53;2.20;;;;;;;;;;5055726;28;20044;-66
2023/09/05 09:32:50;;;;;;;3.63;2.13;;;;;;;;;;5056127;28;20376;-66
2023/09/05 09:35:15;;;;;;;3.50;2.38;;;;;;;;;;5055870;28;20515;-66
2023/09/05 09:37:40;;;;;;;3.50;1.83;;;;;;;;;;5055805;28;20029;-66
2023/09/05 09:40:06;;;;;;;6.57;2.28;;;;;;;;;;5054661;28;20300;-66
2023/09/05 09:42:31;;;;;;;4.28;2.08;;;;;;;;;;5055983;28;20027;-66
2023/09/05 09:44:57;;;;;;;3.43;2.20;;;;;;;;;;5055894;28;20065;-66
2023/09/05 09:47:23;;;;;;;4.25;2.58;;;;;;;;;;5055527;28;20029;-66
2023/09/05 09:49:49;;;;;;;2.78;1.70;;;;;;;;;;5055871;28;20024;-66
2023/09/05 09:52:15;;;;;;;5.63;1.95;;;;;;;;;;5055798;28;20400;-65
2023/09/05 09:54:43;;;;;;;5.00;2.17;;;;;;;;;;5055484;28;20021;-66
2023/09/05 09:57:09;;;;;;;3.65;2.00;;;;;;;;;;5055431;28;20013;-66
2023/09/05 09:59:37;;;;;;;5.32;2.22;;;;;;;;;;5055736;28;20143;-72
2023/09/05 10:02:09;;;;;;;4.22;2.30;;;;;;;;;;5055611;28;20362;-72
2023/09/05 10:04:37;;;;;;;5.65;2.08;;;;;;;;;;5055215;28;20021;-72
2023/09/05 10:07:05;;;;;;;3.78;2.08;;;;;;;;;;5055240;28;20025;-71
2023/09/05 10:09:31;;;;;;;3.90;2.20;;;;;;;;;;5055448;28;20476;-72
2023/09/05 10:11:58;;;;;;;3.90;2.03;;;;;;;;;;5055409;28;20037;-72
2023/09/05 10:14:23;;;;;;;4.55;2.17;;;;;;;;;;5055349;28;20021;-71
2023/09/05 10:16:49;;;;;;;4.20;2.00;;;;;;;;;;5055119;28;20078;-71
2023/09/05 10:19:16;;;;;;;11.63;3.35;;;;;;;;;;5048745;28;20025;-72
2023/09/05 10:21:41;;;;;;;5.65;2.15;;;;;;;;;;5035211;28;20052;-72
2023/09/05 10:24:07;;;;;;;3.42;1.98;;;;;;;;;;5035218;28;20025;-72
2023/09/05 10:26:33;;;;;;;2.42;1.90;;;;;;;;;;5024010;28;20018;-71
2023/09/05 10:28:58;;;;;;;4.90;2.20;;;;;;;;;;5031296;28;20045;-72
2023/09/05 10:31:24;;;;;;;3.50;2.30;;;;;;;;;;5034284;28;20088;-72
2023/09/05 10:33:49;;;;;;;3.55;2.20;;;;;;;;;;5034014;28;20378;-72
2023/09/05 10:36:33;;;;;;;3.00;1.77;;;;;;;;;;5034100;28;20053;-72
2023/09/05 10:38:59;;;;;;;3.55;2.13;;;;;;;;;;5034022;28;20029;-72
2023/09/05 10:41:37;;;;;;;3.22;1.95;;;;;;;;;;5033544;28;20025;-72
2023/09/05 10:44:02;;;;;;;5.68;2.30;;;;;;;;;;5034007;28;20025;-72
2023/09/05 10:46:27;;;;;;;3.60;2.00;;;;;;;;;;5033889;28;20037;-71
2023/09/05 10:49:08;;;;;;;3.27;2.10;;;;;;;;;;5034342;28;20782;-71
2023/09/05 10:51:34;;;;;;;3.60;2.25;;;;;;;;;;5033696;28;20251;-71
2023/09/05 10:54:19;;;;;;;3.50;2.03;;;;;;;;;;5034089;28;20036;-72
2023/09/05 10:56:45;;;;;;;4.10;2.30;;;;;;;;;;5033151;28;20065;-72
2023/09/05 10:59:23;;;;;;;3.57;1.97;;;;;;;;;;5033995;28;20060;-72
2023/09/05 11:01:52;;;;;;;3.50;1.90;;;;;;;;;;5033809;28;20792;-71
2023/09/05 11:04:19;;;;;;;5.90;2.28;;;;;;;;;;5034106;28;20030;-72
2023/09/05 11:06:54;;;;;;;6.63;2.03;;;;;;;;;;5033148;28;20060;-72
2023/09/05 11:09:20;;;;;;;8.73;2.10;;;;;;;;;;5034094;28;20396;-66
2023/09/05 11:11:45;;;;;;;2.83;1.85;;;;;;;;;;5032769;28;20028;-65
2023/09/05 11:14:10;;;;;;;4.40;2.13;;;;;;;;;;5033601;28;20033;-66
2023/09/05 11:16:52;;;;;;;4.45;2.22;;;;;;;;;;5033405;28;20034;-66
2023/09/05 11:19:29;;;;;;;4.65;2.30;;;;;;;;;;5033905;28;20029;-65
2023/09/05 11:22:05;;;;;;;3.67;1.73;;;;;;;;;;5033615;28;20487;-65
2023/09/05 11:24:31;;;;;;;3.90;1.90;;;;;;;;;;5033124;28;20021;-66
2023/09/05 11:26:56;;;;;;;4.43;2.25;;;;;;;;;;5032883;28;20029;-66
2023/09/05 11:29:22;;;;;;;3.63;2.40;;;;;;;;;;5033078;28;20104;-65
2023/09/05 11:31:47;;;;;;;2.13;1.80;;;;;;;;;;5032976;28;20045;-65
2023/09/05 11:34:15;;;;;;;3.37;2.03;;;;;;;;;;5033094;28;20087;-65
2023/09/05 11:36:41;;;;;;;3.22;2.13;;;;;;;;;;5033498;28;20413;-65
2023/09/05 11:39:08;;;;;;;3.13;2.10;;;;;;;;;;5037079;28;20025;-65
2023/09/05 11:41:40;;;;;;;2.72;1.80;;;;;;;;;;5033881;28;20474;-65
2023/09/05 11:44:05;;;;;;;5.65;1.80;;;;;;;;;;5033729;28;20381;-65
2023/09/05 11:46:33;;;;;;;3.30;1.90;;;;;;;;;;5033824;28;20029;-66
2023/09/05 11:48:59;;;;;;;4.32;2.00;;;;;;;;;;5033710;28;20377;-65
2023/09/05 11:51:25;;;;;;;2.47;1.80;;;;;;;;;;5033454;28;20021;-65
2023/09/05 11:53:51;;;;;;;4.90;2.13;;;;;;;;;;5033728;28;20038;-65
2023/09/05 11:56:16;;;;;;;3.75;2.33;;;;;;;;;;5033685;28;20025;-65
2023/09/05 11:58:42;;;;;;;6.00;1.98;;;;;;;;;;5033614;28;20032;-65
2023/09/05 12:01:07;;;;;;;2.73;2.03;;;;;;;;;;5033573;28;20021;-65
2023/09/05 12:03:38;;;;;;;4.43;2.10;;;;;;;;;;5032955;28;20079;-65
2023/09/05 12:06:04;;;;;;;3.42;2.05;;;;;;;;;;5033538;28;20021;-65
2023/09/05 12:08:30;;;;;;;5.45;2.15;;;;;;;;;;5033521;28;20021;-66
2023/09/05 12:10:57;;;;;;;2.80;1.77;;;;;;;;;;5033497;28;20105;-65
2023/09/05 12:13:36;;;;;;;2.78;1.90;;;;;;;;;;5033467;28;20021;-65
2023/09/05 12:16:03;;;;;;;2.78;1.80;;;;;;;;;;5033411;28;20025;-65
2023/09/05 12:18:28;;;;;;;2.83;1.77;;;;;;;;;;5033136;28;20025;-65
2023/09/05 12:20:57;;;;;;;3.40;2.00;;;;;;;;;;5033362;28;20014;-72
2023/09/05 12:23:25;;;;;;;6.40;2.20;;;;;;;;;;5033306;28;20282;-72
2023/09/05 12:25:54;;;;;;;4.03;2.10;;;;;;;;;;5033378;28;20076;-70
2023/09/05 12:28:20;;;;;;;2.15;1.70;;;;;;;;;;5033384;28;20381;-71
2023/09/05 12:30:47;;;;;;;4.72;2.22;;;;;;;;;;5032912;28;20042;-72
2023/09/05 12:33:13;;;;;;;5.95;2.05;;;;;;;;;;5033095;28;20105;-72
2023/09/05 12:35:38;;;;;;;4.82;2.00;;;;;;;;;;5033078;28;20030;-72
2023/09/05 12:38:10;;;;;;;5.00;1.97;;;;;;;;;;5033019;28;20021;-72
2023/09/05 12:40:35;;;;;;;6.13;2.20;;;;;;;;;;5032912;28;20079;-72
2023/09/05 12:43:01;;;;;;;5.60;2.42;;;;;;;;;;5032994;28;20037;-72
2023/09/05 12:45:26;;;;;;;6.95;2.47;;;;;;;;;;5033136;28;20018;-71
2023/09/05 12:47:51;;;;;;;3.75;2.20;;;;;;;;;;5032970;28;20354;-71
2023/09/05 12:50:29;;;;;;;3.93;2.17;;;;;;;;;;5033001;28;20096;-71
2023/09/05 12:52:55;;;;;;;4.68;2.10;;;;;;;;;;5032909;28;20021;-71
2023/09/05 12:55:20;;;;;;;5.95;2.40;;;;;;;;;;5033138;28;20025;-72
2023/09/05 12:57:46;;;;;;;2.83;1.90;;;;;;;;;;5032849;28;20021;-72
2023/09/05 13:00:12;;;;;;;3.10;2.22;;;;;;;;;;5033069;28;20366;-71
2023/09/05 13:02:39;;;;;;;2.15;1.70;;;;;;;;;;5032750;28;20508;-72
2023/09/05 13:05:04;;;;;;;4.40;2.20;;;;;;;;;;5032930;28;20032;-72
2023/09/05 13:07:30;;;;;;;4.13;2.17;;;;;;;;;;5032834;28;20048;-72
2023/09/05 13:09:55;;;;;;;4.40;2.20;;;;;;;;;;5032966;28;20014;-71
2023/09/05 13:12:21;;;;;;;5.20;2.30;;;;;;;;;;5032936;28;20025;-71
2023/09/05 13:14:46;;;;;;;4.55;2.40;;;;;;;;;;5034538;28;20385;-72
2023/09/05 13:17:11;;;;;;;2.93;2.17;;;;;;;;;;5036558;28;20485;-72
2023/09/05 13:19:37;;;;;;;6.32;2.25;;;;;;;;;;5036227;28;20242;-71
2023/09/05 13:22:02;;;;;;;5.70;2.50;;;;;;;;;;5036442;28;20025;-71
2023/09/05 13:24:28;;;;;;;4.82;2.05;;;;;;;;;;5036138;28;20024;-72
2023/09/05 13:26:54;;;;;;;3.47;1.75;;;;;;;;;;5036014;28;20096;-71
2023/09/05 13:29:19;;;;;;;3.30;2.05;;;;;;;;;;5036173;28;20017;-72
2023/09/05 13:31:44;;;;;;;5.03;2.22;;;;;;;;;;5035856;28;20046;-72
2023/09/05 13:34:10;;;;;;;3.60;2.00;;;;;;;;;;5035988;28;20473;-71
2023/09/05 13:36:35;;;;;;;3.78;2.10;;;;;;;;;;5036151;28;20113;-71
2023/09/05 13:39:00;;;;;;;2.97;2.00;;;;;;;;;;5035926;28;20048;-71
2023/09/05 13:41:26;;;;;;;3.80;2.10;;;;;;;;;;5034580;28;20473;-71
2023/09/05 13:43:51;;;;;;;6.73;2.20;;;;;;;;;;5035776;28;20041;-72
2023/09/05 13:46:16;;;;;;;5.40;2.20;;;;;;;;;;5035760;28;20041;-71
2023/09/05 13:48:41;;;;;;;2.63;2.17;;;;;;;;;;5035710;28;20092;-71
2023/09/05 13:51:07;;;;;;;2.80;1.87;;;;;;;;;;5035667;28;20439;-72
2023/09/05 13:53:32;;;;;;;3.67;2.05;;;;;;;;;;5035837;28;20243;-72
2023/09/05 13:55:57;;;;;;;3.70;2.00;;;;;;;;;;5035598;28;20024;-71
2023/09/05 13:58:22;;;;;;;3.75;2.08;;;;;;;;;;5035548;28;20250;-71
2023/09/05 14:00:48;;;;;;;5.43;2.30;;;;;;;;;;5035578;28;20017;-72
2023/09/05 14:03:13;;;;;;;2.90;1.80;;;;;;;;;;5035379;28;20025;-72
2023/09/05 14:05:38;;;;;;;3.67;2.00;;;;;;;;;;5035353;28;20060;-72
2023/09/05 14:08:04;;;;;;;2.97;1.90;;;;;;;;;;5035594;28;20056;-71
2023/09/05 14:10:29;;;;;;;5.30;2.15;;;;;;;;;;5035388;28;20117;-71
2023/09/05 14:12:54;;;;;;;4.57;2.20;;;;;;;;;;5035320;28;20074;-71
2023/09/05 14:15:21;;;;;;;3.30;2.07;;;;;;;;;;5035302;28;20017;-71
2023/09/05 14:17:46;;;;;;;3.60;2.13;;;;;;;;;;5035419;28;20119;-71
2023/09/05 14:20:11;;;;;;;4.97;2.27;;;;;;;;;;5035167;28;20168;-72
2023/09/05 14:22:36;;;;;;;5.18;2.33;;;;;;;;;;5035086;28;20424;-71
2023/09/05 14:25:02;;;;;;;3.50;1.90;;;;;;;;;;5035217;28;20106;-72
2023/09/05 14:27:27;;;;;;;3.00;2.10;;;;;;;;;;5031871;28;20013;-71
2023/09/05 14:29:52;;;;;;;3.10;2.10;;;;;;;;;;5033037;28;20046;-71